Time;durP1;ratioP1;P1;durP2;ratioP2;P2;SDS_P1;SDS_P2;PMS_P1;PMS_P2;Temp;Humidity;BMP_temperature;BMP_pressure;BME280_temperature;BME280_humidity;BME280_pressure;Samples;Min_cycle;Max_cycle;Signal;HPM_P1;HPM_P2
2022/12/26 00:00:59;;;;;;;2.20;2.00;;;;;;;11.28;67.49;95711.19;6123782;23;20179;-83
2022/12/26 00:03:25;;;;;;;1.80;1.70;;;;;;;11.22;67.59;95706.72;6123894;23;20175;-82
2022/12/26 00:05:52;;;;;;;2.53;1.80;;;;;;;11.16;67.94;95704.84;6123812;23;20195;-84
2022/12/26 00:08:18;;;;;;;2.03;1.80;;;;;;;11.09;68.12;95701.38;6124073;23;20240;-83
2022/12/26 00:10:46;;;;;;;1.93;1.63;;;;;;;11.11;68.10;95696.06;6123480;23;20175;-82
2022/12/26 00:13:12;;;;;;;2.00;1.80;;;;;;;11.15;67.81;95700.69;6123448;23;20179;-82
2022/12/26 00:15:39;;;;;;;1.60;1.50;;;;;;;11.20;67.83;95700.94;6123318;23;20629;-83
2022/12/26 00:18:07;;;;;;;2.33;1.60;;;;;;;11.18;67.47;95702.88;6122637;23;20199;-82
2022/12/26 00:20:33;;;;;;;2.00;1.80;;;;;;;11.21;67.75;95701.75;6122361;23;20186;-84
2022/12/26 00:23:00;;;;;;;1.83;1.60;;;;;;;11.19;67.69;95706.28;6123485;23;20254;-82
2022/12/26 00:25:27;;;;;;;2.93;1.50;;;;;;;11.19;67.62;95701.13;6123700;23;20175;-82
2022/12/26 00:27:54;;;;;;;1.70;1.60;;;;;;;11.20;67.40;95702.72;6123058;23;20230;-83
2022/12/26 00:30:21;;;;;;;1.53;1.43;;;;;;;11.20;67.19;95702.72;6123750;23;20771;-83
2022/12/26 00:32:47;;;;;;;2.13;1.70;;;;;;;11.21;67.23;95710.28;6123303;23;20204;-83
2022/12/26 00:35:14;;;;;;;1.50;1.30;;;;;;;11.13;66.91;95710.38;6123600;23;20183;-83
2022/12/26 00:37:40;;;;;;;1.30;1.20;;;;;;;11.11;66.78;95706.38;6123086;23;20209;-83
2022/12/26 00:40:08;;;;;;;2.60;1.37;;;;;;;11.15;66.56;95703.28;6123172;23;20179;-84
2022/12/26 00:42:34;;;;;;;1.50;1.17;;;;;;;11.23;66.76;95708.31;6122469;23;20207;-83
2022/12/26 00:45:02;;;;;;;2.00;1.43;;;;;;;11.25;65.96;95710.72;6123661;23;20198;-83
2022/12/26 00:47:28;;;;;;;1.23;1.10;;;;;;;11.23;66.05;95713.47;6123657;23;20498;-83
2022/12/26 00:49:55;;;;;;;2.87;1.23;;;;;;;11.23;65.98;95705.75;6122562;23;20236;-84
2022/12/26 00:52:21;;;;;;;1.50;1.40;;;;;;;11.24;65.98;95702.19;6123474;23;20584;-83
2022/12/26 00:54:47;;;;;;;1.40;1.30;;;;;;;11.19;65.51;95706.28;6123402;23;20238;-83
2022/12/26 00:57:14;;;;;;;1.47;1.37;;;;;;;11.19;65.63;95712.22;6122525;23;20179;-83
2022/12/26 00:59:40;;;;;;;1.37;1.27;;;;;;;11.18;65.17;95717.56;6122504;23;20246;-84
2022/12/26 01:02:36;;;;;;;1.23;1.13;;;;;;;11.17;65.19;95709.03;6123445;23;20669;-83
2022/12/26 01:04:55;;;;;;;2.13;1.50;;;;;;;11.15;64.58;95711.00;6122162;23;20259;-83
2022/12/26 01:07:22;;;;;;;1.40;1.30;;;;;;;11.04;64.88;95711.41;6123596;23;20160;-84
2022/12/26 01:09:48;;;;;;;1.47;1.37;;;;;;;11.08;65.38;95715.25;6122619;23;20186;-83
2022/12/26 01:12:14;;;;;;;1.87;1.20;;;;;;;11.10;65.08;95712.50;6123452;23;20199;-83
2022/12/26 01:14:41;;;;;;;1.40;1.30;;;;;;;11.08;64.84;95707.53;6124145;23;20517;-83
2022/12/26 01:17:08;;;;;;;1.40;1.30;;;;;;;11.07;64.86;95717.03;6124844;23;20246;-84
2022/12/26 01:19:35;;;;;;;1.40;1.30;;;;;;;11.02;64.75;95710.78;6125362;23;20630;-82
2022/12/26 01:22:01;;;;;;;1.40;1.30;;;;;;;11.01;64.94;95716.91;6124032;23;20254;-83
2022/12/26 01:24:27;;;;;;;1.57;1.47;;;;;;;10.99;64.85;95721.44;6124955;23;20183;-84
2022/12/26 01:26:54;;;;;;;1.50;1.40;;;;;;;10.97;65.07;95728.53;6125025;23;20685;-83
2022/12/26 01:29:20;;;;;;;1.67;1.43;;;;;;;10.92;64.59;95718.00;6124068;23;20172;-83
2022/12/26 01:31:47;;;;;;;1.33;1.20;;;;;;;10.89;64.85;95726.06;6122919;23;21023;-83
2022/12/26 01:34:14;;;;;;;1.50;1.30;;;;;;;10.86;64.61;95727.19;6123378;23;20186;-83
2022/12/26 01:36:41;;;;;;;1.47;1.20;;;;;;;10.85;64.83;95728.19;6123722;23;20182;-83
2022/12/26 01:39:07;;;;;;;1.23;1.03;;;;;;;10.84;64.68;95723.19;6123288;23;20199;-83
2022/12/26 01:41:34;;;;;;;1.40;1.30;;;;;;;10.82;65.22;95730.28;6125328;23;20226;-83
2022/12/26 01:44:02;;;;;;;1.43;1.30;;;;;;;10.83;64.78;95726.75;6125363;23;20180;-83
2022/12/26 01:46:36;;;;;;;2.13;1.20;;;;;;;10.80;64.68;95738.19;6125452;23;20171;-83
2022/12/26 01:49:08;;;;;;;1.50;1.20;;;;;;;10.83;64.78;95740.44;6125105;23;20164;-84
2022/12/26 01:51:39;;;;;;;1.30;1.20;;;;;;;10.82;64.86;95746.56;6125871;23;20227;-83
2022/12/26 01:54:10;;;;;;;1.50;1.40;;;;;;;10.77;64.98;95737.75;6126132;23;20234;-83
2022/12/26 01:56:39;;;;;;;1.33;1.13;;;;;;;10.78;64.70;95736.75;6126117;23;20160;-83
2022/12/26 01:59:09;;;;;;;1.80;1.20;;;;;;;10.78;64.28;95749.63;6125620;23;20529;-83
2022/12/26 02:01:39;;;;;;;1.43;1.20;;;;;;;10.78;64.17;95747.88;6125252;23;20198;-83
2022/12/26 02:07:07;;;;;;;1.40;1.30;;;;;;;10.80;63.85;95751.06;6063198;23;20188;-83
2022/12/26 02:09:34;;;;;;;1.30;1.20;;;;;;;10.79;63.66;95752.03;6109113;23;20175;-83
2022/12/26 02:12:04;;;;;;;1.40;1.30;;;;;;;10.79;64.05;95746.09;6124469;23;20519;-84
2022/12/26 02:14:32;;;;;;;1.10;1.10;;;;;;;10.79;63.96;95743.50;6124565;23;20161;-83
2022/12/26 02:16:58;;;;;;;2.13;1.10;;;;;;;10.78;63.85;95741.91;6124058;23;20768;-84
2022/12/26 02:19:33;;;;;;;2.20;1.00;;;;;;;10.77;63.85;95742.91;6124717;23;20203;-82
2022/12/26 02:22:24;;;;;;;1.33;1.17;;;;;;;10.76;63.89;95741.31;6123329;23;20195;-83
2022/12/26 02:25:18;;;;;;;1.30;1.20;;;;;;;10.73;63.67;95745.03;6124021;23;20637;-83
2022/12/26 02:28:13;;;;;;;1.40;1.30;;;;;;;10.73;63.56;95745.84;6124150;23;20348;-84
2022/12/26 02:30:48;;;;;;;1.20;1.10;;;;;;;10.73;63.39;95740.69;6124055;23;20644;-82
2022/12/26 02:33:39;;;;;;;1.33;1.20;;;;;;;10.71;63.82;95737.47;6125044;23;20224;-83
2022/12/26 02:36:30;;;;;;;2.50;1.10;;;;;;;10.72;63.79;95741.66;6124771;23;20174;-83
2022/12/26 02:39:08;;;;;;;1.13;1.03;;;;;;;10.72;63.76;95738.28;6123860;23;20195;-83
2022/12/26 02:41:47;;;;;;;1.20;1.00;;;;;;;10.61;63.48;95739.47;6124773;23;20199;-83
2022/12/26 02:47:14;;;;;;;1.00;1.00;;;;;;;10.57;63.51;95732.28;6124645;23;20167;-83
2022/12/26 03:13:12;;;;;;;0.97;0.97;;;;;;;10.43;63.91;95717.56;6124002;23;20533;-83
2022/12/26 03:18:29;;;;;;;0.90;0.90;;;;;;;10.49;63.59;95727.97;6123786;23;20525;-83
2022/12/26 03:20:57;;;;;;;0.80;0.80;;;;;;;10.51;63.46;95727.81;6123131;23;20171;-83
2022/12/26 03:23:24;;;;;;;0.83;0.83;;;;;;;10.50;63.28;95737.31;6124017;23;20685;-82
2022/12/26 03:28:38;;;;;;;0.97;0.90;;;;;;;10.63;63.37;95740.09;6123778;23;20248;-83
2022/12/26 03:31:07;;;;;;;0.97;0.97;;;;;;;10.66;62.96;95741.53;6124015;23;20188;-83
2022/12/26 03:36:29;;;;;;;0.90;0.90;;;;;;;10.68;62.72;95744.75;6124413;23;20723;-83
2022/12/26 03:39:06;;;;;;;0.90;0.90;;;;;;;10.70;62.74;95742.78;6122534;23;20180;-83
2022/12/26 04:46:27;;;;;;;1.30;1.20;;;;;;;10.60;62.96;95758.47;6123963;23;20677;-84
2022/12/26 04:51:39;;;;;;;1.27;1.10;;;;;;;10.58;63.06;95757.06;6123763;23;20668;-83
2022/12/26 04:54:06;;;;;;;1.43;1.13;;;;;;;10.55;63.17;95755.63;6124552;23;20530;-83
2022/12/26 04:56:33;;;;;;;1.20;1.10;;;;;;;10.54;63.14;95760.94;6124171;23;20175;-84
2022/12/26 04:59:01;;;;;;;1.10;1.03;;;;;;;10.52;63.00;95740.53;6123182;23;20255;-83
2022/12/26 05:09:42;;;;;;;1.50;1.17;;;;;;;10.48;63.40;95754.69;6126535;23;20159;-84
2022/12/26 05:12:09;;;;;;;1.20;1.10;;;;;;;10.50;63.29;95754.53;6125814;23;20196;-84
2022/12/26 05:14:37;;;;;;;2.07;1.20;;;;;;;10.50;63.36;95757.91;6125467;23;20175;-84
2022/12/26 05:31:08;;;;;;;3.37;1.33;;;;;;;10.43;63.66;95780.13;6125970;23;20163;-84
2022/12/26 05:36:21;;;;;;;1.07;1.00;;;;;;;10.34;63.98;95781.19;6126737;23;20661;-84
2022/12/26 05:38:48;;;;;;;1.37;1.27;;;;;;;10.29;64.21;95784.25;6125266;23;20223;-84
2022/12/26 05:41:14;;;;;;;1.33;1.07;;;;;;;10.26;64.17;95784.59;6126646;23;20198;-84
2022/12/26 05:43:41;;;;;;;1.57;1.20;;;;;;;10.20;64.53;95781.91;6127276;23;20187;-85
2022/12/26 05:46:09;;;;;;;1.13;1.03;;;;;;;10.25;64.53;95785.56;6125262;23;20180;-84
2022/12/26 05:48:35;;;;;;;1.47;1.20;;;;;;;10.24;64.43;95788.28;6124744;23;20533;-84
2022/12/26 05:51:04;;;;;;;1.57;1.20;;;;;;;10.21;64.78;95788.63;6124280;23;20183;-85
2022/12/26 05:53:32;;;;;;;1.30;1.20;;;;;;;10.22;64.85;95788.47;6124906;23;20186;-84
2022/12/26 05:56:02;;;;;;;1.00;1.00;;;;;;;10.21;64.59;95792.00;6125002;23;20289;-84
2022/12/26 05:58:28;;;;;;;1.20;1.10;;;;;;;10.20;64.69;95790.41;6124990;23;20203;-83
2022/12/26 06:01:04;;;;;;;1.63;1.27;;;;;;;10.21;64.57;95783.47;6124836;23;20180;-83
2022/12/26 06:03:32;;;;;;;1.83;1.53;;;;;;;10.24;64.83;95788.28;6127458;23;20159;-83
2022/12/26 06:05:59;;;;;;;1.60;1.50;;;;;;;10.17;65.39;95795.88;6125452;23;20506;-84
2022/12/26 06:08:25;;;;;;;1.30;1.20;;;;;;;10.16;65.03;95785.75;6125537;23;20182;-84
2022/12/26 06:10:51;;;;;;;1.80;1.20;;;;;;;10.21;65.33;95793.78;6126576;23;20509;-84
2022/12/26 06:13:18;;;;;;;1.40;1.30;;;;;;;10.25;65.39;95782.19;6127381;23;20219;-84
2022/12/26 06:15:44;;;;;;;1.20;1.10;;;;;;;10.30;64.89;95785.06;6126590;23;20250;-84
2022/12/26 06:18:10;;;;;;;1.30;1.20;;;;;;;10.30;64.91;95777.34;6126718;23;20183;-84
2022/12/26 06:20:39;;;;;;;3.23;1.30;;;;;;;10.27;64.78;95775.09;6126272;23;21022;-84
2022/12/26 06:23:06;;;;;;;1.40;1.30;;;;;;;10.29;65.31;95773.97;6126284;23;20199;-84
2022/12/26 06:25:32;;;;;;;1.30;1.20;;;;;;;10.25;65.50;95771.88;6126204;23;20180;-84
2022/12/26 06:27:59;;;;;;;2.30;1.23;;;;;;;10.32;65.59;95773.63;6126771;23;20180;-84
2022/12/26 06:30:25;;;;;;;1.37;1.20;;;;;;;10.37;65.82;95776.50;6125854;23;20175;-84
2022/12/26 06:32:52;;;;;;;1.23;1.13;;;;;;;10.42;65.83;95770.81;6127250;23;20195;-84
2022/12/26 06:35:18;;;;;;;1.50;1.40;;;;;;;10.47;65.83;95772.88;6126619;23;20226;-84
2022/12/26 06:37:46;;;;;;;1.50;1.23;;;;;;;10.55;65.77;95765.94;6126175;23;20175;-85
2022/12/26 06:40:12;;;;;;;3.03;1.27;;;;;;;10.55;66.22;95763.34;6126573;23;20222;-85
2022/12/26 06:42:38;;;;;;;2.37;1.60;;;;;;;10.54;66.40;95743.72;6126082;23;20200;-83
2022/12/26 06:45:05;;;;;;;1.53;1.40;;;;;;;10.54;66.75;95742.91;6126498;23;20182;-85
2022/12/26 06:47:32;;;;;;;1.43;1.33;;;;;;;10.56;66.62;95749.50;6125962;23;20176;-85
2022/12/26 06:49:58;;;;;;;1.50;1.30;;;;;;;10.68;66.13;95749.88;6126846;23;20223;-84
2022/12/26 06:52:25;;;;;;;1.40;1.30;;;;;;;10.69;66.34;95754.88;6126903;23;20529;-84
2022/12/26 06:54:52;;;;;;;1.47;1.37;;;;;;;10.75;66.31;95757.72;6126729;23;20180;-85
2022/12/26 06:57:19;;;;;;;1.60;1.50;;;;;;;10.76;66.14;95759.34;6126752;23;20168;-85
2022/12/26 06:59:45;;;;;;;2.17;1.77;;;;;;;10.76;66.21;95761.91;6125752;23;20199;-84
2022/12/26 07:02:13;;;;;;;2.90;1.70;;;;;;;10.78;66.09;95772.81;6127536;23;20566;-84
2022/12/26 07:04:39;;;;;;;1.70;1.60;;;;;;;10.80;66.59;95770.88;6126155;23;20230;-84
2022/12/26 07:07:05;;;;;;;2.40;1.80;;;;;;;10.85;66.15;95782.25;6124881;23;20186;-84
2022/12/26 07:09:32;;;;;;;1.50;1.40;;;;;;;10.90;65.95;95776.59;6126818;23;20240;-84
2022/12/26 07:11:59;;;;;;;1.50;1.40;;;;;;;10.93;65.85;95771.09;6126983;23;20199;-84
2022/12/26 07:14:26;;;;;;;1.50;1.40;;;;;;;10.90;65.75;95772.25;6126362;23;20198;-84
2022/12/26 07:16:52;;;;;;;1.60;1.50;;;;;;;10.85;65.53;95769.38;6127409;23;20191;-84
2022/12/26 07:19:19;;;;;;;1.63;1.53;;;;;;;10.75;65.35;95762.88;6127546;23;20199;-83
2022/12/26 07:21:45;;;;;;;2.30;1.67;;;;;;;10.60;65.38;95755.88;6125573;23;20199;-83
2022/12/26 07:24:15;;;;;;;1.60;1.50;;;;;;;10.59;65.24;95767.16;6126665;23;20179;-84
2022/12/26 07:26:41;;;;;;;1.47;1.37;;;;;;;10.61;65.06;95767.00;6126304;23;20184;-83
2022/12/26 07:29:11;;;;;;;1.70;1.30;;;;;;;10.61;64.97;95775.50;6126077;23;20630;-85
2022/12/26 07:31:38;;;;;;;2.33;1.60;;;;;;;10.61;64.88;95774.72;6125694;23;20199;-84
2022/12/26 07:34:04;;;;;;;1.70;1.60;;;;;;;10.57;64.46;95782.00;6127376;23;20180;-84
2022/12/26 07:36:31;;;;;;;1.80;1.50;;;;;;;10.60;64.76;95773.91;6124242;23;20190;-84
2022/12/26 07:38:57;;;;;;;1.63;1.53;;;;;;;10.56;64.55;95774.44;6124048;23;20557;-84
2022/12/26 07:44:10;;;;;;;2.33;1.60;;;;;;;10.66;64.57;95790.47;6126445;23;20158;-84
2022/12/26 07:46:37;;;;;;;1.67;1.43;;;;;;;10.70;64.36;95789.94;6126675;23;20186;-84
2022/12/26 07:49:06;;;;;;;1.50;1.40;;;;;;;10.76;64.03;95791.03;6125892;23;20175;-84
2022/12/26 07:51:32;;;;;;;2.40;1.30;;;;;;;10.78;64.06;95794.22;6126509;23;20202;-84
2022/12/26 07:53:59;;;;;;;1.60;1.50;;;;;;;10.80;63.95;95781.97;6126530;23;20207;-84
2022/12/26 07:56:25;;;;;;;1.53;1.43;;;;;;;10.84;63.53;95782.44;6126161;23;20179;-84
2022/12/26 07:58:52;;;;;;;1.43;1.33;;;;;;;10.88;63.47;95781.94;6126202;23;20667;-85
2022/12/26 08:01:20;;;;;;;1.60;1.50;;;;;;;10.96;63.52;95784.44;6127386;23;20206;-83
2022/12/26 08:03:47;;;;;;;3.63;1.40;;;;;;;10.99;63.53;95785.84;6127040;23;20176;-84
2022/12/26 08:06:14;;;;;;;2.23;1.30;;;;;;;11.13;63.28;95792.03;6134214;23;20191;-84
2022/12/26 08:08:40;;;;;;;2.13;1.70;;;;;;;11.17;63.03;95782.97;6128546;23;20324;-84
2022/12/26 08:11:08;;;;;;;1.73;1.60;;;;;;;11.24;62.83;95789.03;6127957;23;20203;-83
2022/12/26 08:13:35;;;;;;;1.57;1.47;;;;;;;11.40;62.68;95792.25;6127746;23;20183;-84
2022/12/26 08:16:05;;;;;;;1.60;1.50;;;;;;;11.62;62.25;95790.56;6128041;23;20193;-85
2022/12/26 08:18:33;;;;;;;1.57;1.40;;;;;;;11.78;61.58;95789.63;6127804;23;20187;-83
2022/12/26 08:21:02;;;;;;;1.50;1.40;;;;;;;11.82;61.43;95798.59;6126760;23;20196;-83
2022/12/26 08:23:32;;;;;;;1.57;1.30;;;;;;;11.84;61.86;95794.06;6127995;23;20190;-84
2022/12/26 08:25:59;;;;;;;1.80;1.70;;;;;;;12.00;61.55;95790.50;6128587;23;20279;-84
2022/12/26 08:28:25;;;;;;;1.93;1.73;;;;;;;12.15;61.01;95780.13;6128512;23;20647;-84
2022/12/26 08:30:52;;;;;;;1.77;1.40;;;;;;;12.34;60.66;95782.16;6127846;23;20185;-84
2022/12/26 08:33:19;;;;;;;1.80;1.60;;;;;;;12.50;60.11;95775.97;6128071;23;20199;-84
2022/12/26 08:35:47;;;;;;;1.80;1.50;;;;;;;12.64;59.89;95786.25;6127912;23;20238;-82
2022/12/26 08:38:15;;;;;;;1.97;1.63;;;;;;;12.78;59.08;95767.28;6127757;23;20186;-84
2022/12/26 08:40:42;;;;;;;1.77;1.67;;;;;;;12.98;59.28;95777.00;6126624;23;20226;-82
2022/12/26 08:43:08;;;;;;;1.70;1.60;;;;;;;13.08;58.29;95773.09;6126602;23;20199;-85
2022/12/26 08:45:34;;;;;;;1.43;1.33;;;;;;;13.20;58.37;95770.84;6126601;23;20207;-85
2022/12/26 08:48:01;;;;;;;1.70;1.60;;;;;;;13.36;57.80;95772.34;6125870;23;20187;-83
2022/12/26 08:50:29;;;;;;;2.97;1.90;;;;;;;13.57;57.79;95772.28;6126961;23;20206;-84
2022/12/26 08:52:57;;;;;;;1.70;1.60;;;;;;;13.72;57.35;95764.41;6127489;23;20199;-84
2022/12/26 08:55:23;;;;;;;1.70;1.60;;;;;;;13.80;56.19;95772.81;6127013;23;20179;-84
2022/12/26 08:57:50;;;;;;;2.60;1.60;;;;;;;13.93;56.18;95760.91;6126534;23;20175;-84
2022/12/26 09:00:17;;;;;;;2.03;1.70;;;;;;;14.07;56.60;95773.72;6127080;23;20196;-84
2022/12/26 09:02:43;;;;;;;1.60;1.50;;;;;;;14.13;56.09;95764.38;6126658;23;20242;-85
2022/12/26 09:05:10;;;;;;;1.93;1.50;;;;;;;14.05;56.00;95767.94;6126903;23;20188;-84
2022/12/26 09:07:36;;;;;;;1.50;1.40;;;;;;;14.06;56.41;95759.16;6126318;23;20207;-83
2022/12/26 09:10:05;;;;;;;1.83;1.73;;;;;;;14.29;55.90;95763.25;6125130;23;20179;-85
2022/12/26 09:12:31;;;;;;;2.80;1.80;;;;;;;14.52;55.61;95756.75;6125620;23;20203;-83
2022/12/26 09:14:57;;;;;;;3.88;1.60;;;;;;;14.77;55.47;95757.00;6126204;23;20183;-84
2022/12/26 09:17:25;;;;;;;2.58;1.70;;;;;;;14.92;54.36;95756.81;6126591;23;20695;-84
2022/12/26 09:19:51;;;;;;;1.67;1.50;;;;;;;14.97;54.76;95757.03;6125775;23;20203;-84
2022/12/26 09:25:04;;;;;;;1.67;1.58;;;;;;;15.21;53.33;95756.38;6125549;23;20358;-84
2022/12/26 09:27:30;;;;;;;1.55;1.45;;;;;;;15.36;53.57;95766.56;6121905;23;20180;-83
2022/12/26 09:29:57;;;;;;;2.92;1.60;;;;;;;15.47;52.68;95760.75;6115147;23;20198;-82
2022/12/26 09:32:32;;;;;;;1.60;1.50;;;;;;;15.64;54.05;95760.34;6124173;23;20195;-86
2022/12/26 09:34:58;;;;;;;3.15;1.65;;;;;;;15.78;57.23;95769.69;6125642;23;20159;-84
2022/12/26 09:37:25;;;;;;;2.38;1.60;;;;;;;15.82;54.29;95750.13;6126246;23;20625;-85
2022/12/26 09:39:51;;;;;;;1.98;1.60;;;;;;;15.84;54.90;95759.31;6127353;23;20191;-84
2022/12/26 09:42:28;;;;;;;1.85;1.50;;;;;;;15.77;53.29;95761.13;6126812;23;20199;-84
2022/12/26 09:45:00;;;;;;;1.50;1.33;;;;;;;15.72;51.23;95767.94;6125762;23;20194;-82
2022/12/26 09:47:32;;;;;;;3.65;1.27;;;;;;;15.56;51.23;95776.97;6128103;23;20215;-82
2022/12/26 09:50:05;;;;;;;1.25;1.15;;;;;;;15.50;50.51;95770.75;6127735;23;20156;-83
2022/12/26 09:52:40;;;;;;;1.50;1.40;;;;;;;15.44;50.94;95771.53;6128898;23;20254;-83
2022/12/26 09:55:29;;;;;;;2.95;1.65;;;;;;;15.42;50.69;95768.34;6128523;23;20167;-83
2022/12/26 09:58:01;;;;;;;1.65;1.25;;;;;;;15.45;51.19;95761.97;6128221;23;20215;-83
2022/12/26 10:00:31;;;;;;;2.25;1.35;;;;;;;15.45;50.45;95754.97;6128226;23;20207;-84
2022/12/26 10:02:59;;;;;;;1.33;1.23;;;;;;;15.57;50.92;95760.38;6127068;23;20810;-84
2022/12/26 10:05:32;;;;;;;2.40;1.50;;;;;;;15.58;50.41;95761.19;6126726;23;20187;-84
2022/12/26 10:08:07;;;;;;;1.90;1.30;;;;;;;15.64;50.87;95757.75;6125365;23;20526;-83
2022/12/26 10:10:44;;;;;;;1.48;1.38;;;;;;;15.83;50.22;95760.31;6126760;23;20541;-83
2022/12/26 10:13:23;;;;;;;1.50;1.40;;;;;;;15.96;49.40;95753.50;6127602;23;20198;-84
2022/12/26 10:15:54;;;;;;;2.67;1.75;;;;;;;16.01;49.89;95746.66;6130012;23;20677;-83
2022/12/26 10:18:38;;;;;;;1.30;1.20;;;;;;;16.05;49.30;95744.44;6128446;23;20163;-84
2022/12/26 10:21:35;;;;;;;1.55;1.45;;;;;;;16.12;48.89;95729.63;6128536;23;20187;-84
2022/12/26 10:24:08;;;;;;;1.20;1.10;;;;;;;16.21;48.98;95733.59;6127640;23;20677;-85
2022/12/26 10:26:39;;;;;;;1.50;1.40;;;;;;;16.21;48.62;95731.78;6127615;23;20168;-84
2022/12/26 10:29:19;;;;;;;1.65;1.55;;;;;;;16.29;48.60;95728.16;6128744;23;20219;-84
2022/12/26 10:31:50;;;;;;;1.40;1.30;;;;;;;16.27;48.35;95726.75;6127948;23;20501;-84
2022/12/26 10:34:20;;;;;;;1.40;1.30;;;;;;;16.30;48.29;95721.16;6128184;23;20160;-83
2022/12/26 10:36:51;;;;;;;1.50;1.40;;;;;;;16.33;48.43;95731.94;6128872;23;20179;-83
2022/12/26 10:39:23;;;;;;;1.67;1.40;;;;;;;16.11;48.48;95728.84;6128607;23;20167;-83
2022/12/26 10:41:52;;;;;;;1.30;1.20;;;;;;;15.92;48.95;95724.53;6127899;23;20262;-83
2022/12/26 10:44:21;;;;;;;1.58;1.33;;;;;;;16.00;49.50;95739.06;6128059;23;20179;-84
2022/12/26 10:47:23;;;;;;;2.05;1.30;;;;;;;15.88;48.85;95731.94;6128193;23;20207;-82
2022/12/26 10:49:50;;;;;;;1.60;1.30;;;;;;;15.78;49.54;95734.16;6128653;23;20163;-83
2022/12/26 10:52:18;;;;;;;1.48;1.08;;;;;;;15.74;49.96;95737.38;6128555;23;20206;-83
2022/12/26 10:54:47;;;;;;;1.42;1.10;;;;;;;15.67;50.00;95740.00;6128285;23;20187;-83
2022/12/26 10:57:14;;;;;;;1.23;1.13;;;;;;;15.76;50.61;95725.00;6127865;23;20175;-84
2022/12/26 10:59:46;;;;;;;2.65;1.23;;;;;;;15.66;50.47;95732.41;6128216;23;20180;-82
2022/12/26 11:02:21;;;;;;;1.80;1.45;;;;;;;15.54;50.85;95738.19;6128003;23;20216;-83
2022/12/26 11:04:59;;;;;;;1.73;1.45;;;;;;;15.40;50.66;95728.81;6125642;23;20175;-84
2022/12/26 11:07:29;;;;;;;1.40;1.30;;;;;;;15.30;51.34;95728.47;6126208;23;20168;-82
2022/12/26 11:09:58;;;;;;;2.45;1.52;;;;;;;15.32;52.56;95728.25;6124417;23;20172;-83
2022/12/26 11:12:27;;;;;;;1.35;1.25;;;;;;;15.20;51.61;95730.69;6126185;23;20199;-84
2022/12/26 11:15:02;;;;;;;1.30;1.20;;;;;;;15.07;51.88;95725.47;6124784;23;20190;-83
2022/12/26 11:17:30;;;;;;;2.30;1.30;;;;;;;15.11;51.98;95732.66;6124708;23;20214;-83
2022/12/26 11:20:23;;;;;;;1.50;1.40;;;;;;;15.07;52.30;95736.66;6126608;23;20176;-82
2022/12/26 11:22:50;;;;;;;2.45;1.40;;;;;;;15.07;52.13;95728.88;6125481;23;20234;-82
2022/12/26 11:25:20;;;;;;;1.33;1.20;;;;;;;15.03;52.10;95732.06;6125517;23;20176;-83
2022/12/26 11:27:49;;;;;;;2.28;1.30;;;;;;;15.02;52.39;95730.47;6124575;23;20172;-82
2022/12/26 11:30:32;;;;;;;2.55;1.25;;;;;;;14.93;52.26;95729.09;6126091;23;20176;-82
2022/12/26 11:33:06;;;;;;;1.85;1.10;;;;;;;14.88;52.17;95737.47;6128668;23;20200;-83
2022/12/26 11:35:36;;;;;;;1.20;1.10;;;;;;;14.85;52.69;95743.03;6127443;23;20164;-82
2022/12/26 11:38:04;;;;;;;1.40;1.13;;;;;;;14.74;52.68;95747.03;6125695;23;20239;-82
2022/12/26 11:40:36;;;;;;;1.65;1.15;;;;;;;14.64;52.67;95744.00;6125412;23;20206;-83
2022/12/26 11:43:06;;;;;;;2.33;1.45;;;;;;;14.70;52.90;95737.25;6126235;23;20203;-83
2022/12/26 11:45:42;;;;;;;1.50;1.30;;;;;;;14.73;52.94;95740.25;6126485;23;20202;-82
2022/12/26 11:48:21;;;;;;;1.40;1.30;;;;;;;14.71;53.03;95744.81;6126274;23;20167;-82
2022/12/26 11:50:48;;;;;;;2.13;1.40;;;;;;;14.72;53.52;95751.59;6126125;23;20156;-83
2022/12/26 11:53:17;;;;;;;2.88;1.67;;;;;;;14.70;53.54;95752.81;6125829;23;20203;-83
2022/12/26 11:55:45;;;;;;;1.67;1.52;;;;;;;14.67;53.74;95754.00;6126090;23;20183;-83
2022/12/26 11:58:20;;;;;;;2.65;1.50;;;;;;;14.57;55.25;95756.19;6126928;23;20171;-82
2022/12/26 12:01:08;;;;;;;1.80;1.45;;;;;;;14.45;56.38;95766.31;6125891;23;20205;-82
2022/12/26 12:03:36;;;;;;;1.67;1.40;;;;;;;14.36;56.62;95775.22;6125816;23;20164;-83
2022/12/26 12:06:13;;;;;;;3.70;1.40;;;;;;;14.26;57.78;95772.19;6126705;23;20191;-82
2022/12/26 12:08:46;;;;;;;1.90;1.75;;;;;;;14.22;58.56;95770.22;6126029;23;20164;-81
2022/12/26 12:11:23;;;;;;;2.33;1.50;;;;;;;14.16;58.89;95785.53;6125562;23;20190;-83
2022/12/26 12:14:04;;;;;;;2.35;1.40;;;;;;;14.16;59.72;95790.69;6126023;23;20214;-84
2022/12/26 12:16:55;;;;;;;3.30;1.73;;;;;;;14.11;59.78;95800.84;6126653;23;20602;-83
2022/12/26 12:19:37;;;;;;;2.28;1.40;;;;;;;14.06;60.79;95825.69;6124290;23;20214;-84
2022/12/26 12:22:26;;;;;;;1.73;1.40;;;;;;;14.02;64.41;95829.69;6123790;23;20238;-83
2022/12/26 12:25:20;;;;;;;2.33;1.85;;;;;;;13.91;65.63;95828.41;6124644;23;20168;-81
2022/12/26 12:27:54;;;;;;;1.90;1.80;;;;;;;13.68;69.09;95838.22;6124174;23;20160;-83
2022/12/26 12:30:24;;;;;;;3.58;2.22;;;;;;;13.45;71.76;95838.47;6125827;23;20164;-81
2022/12/26 12:33:08;;;;;;;3.63;2.10;;;;;;;13.24;75.97;95820.41;6124872;23;20199;-83
2022/12/26 12:35:48;;;;;;;2.05;1.90;;;;;;;13.09;77.83;95844.50;6125842;23;20170;-83
2022/12/26 12:38:31;;;;;;;3.03;2.08;;;;;;;12.97;80.23;95845.19;6125101;23;20179;-83
2022/12/26 12:41:10;;;;;;;2.13;1.93;;;;;;;12.95;81.31;95844.56;6122775;23;20243;-83
2022/12/26 12:43:47;;;;;;;3.07;2.10;;;;;;;12.94;81.13;95856.69;6124466;23;20170;-82
2022/12/26 12:46:26;;;;;;;3.27;2.23;;;;;;;12.84;82.10;95860.56;6126447;23;20179;-83
2022/12/26 12:49:14;;;;;;;3.40;2.40;;;;;;;12.78;83.47;95856.94;6124839;23;20171;-82
2022/12/26 12:51:50;;;;;;;2.97;2.20;;;;;;;12.72;84.04;95862.81;6113604;23;20786;-82
2022/12/26 12:54:43;;;;;;;3.37;2.70;;;;;;;12.63;84.43;95869.09;6126744;23;20468;-82
2022/12/26 12:57:15;;;;;;;3.90;2.83;;;;;;;12.55;84.59;95870.00;6126936;23;20167;-83
2022/12/26 12:59:55;;;;;;;3.67;2.53;;;;;;;12.58;84.53;95874.00;6126563;23;20546;-83
2022/12/26 13:02:28;;;;;;;2.87;2.40;;;;;;;12.38;86.40;95878.94;6125506;23;20207;-83
2022/12/26 13:05:12;;;;;;;2.80;2.27;;;;;;;12.15;87.48;95884.19;6126385;23;20191;-82
2022/12/26 13:07:42;;;;;;;2.73;2.30;;;;;;;12.20;87.74;95902.53;6125531;23;20164;-82
2022/12/26 13:10:17;;;;;;;2.33;2.13;;;;;;;12.27;87.02;95892.31;6126049;23;20183;-83
2022/12/26 13:12:47;;;;;;;2.50;2.30;;;;;;;12.22;88.69;95892.84;6128310;23;20195;-82
2022/12/26 13:15:28;;;;;;;4.23;2.87;;;;;;;12.08;91.38;95894.44;6127464;23;20180;-82
2022/12/26 13:18:00;;;;;;;3.40;3.00;;;;;;;12.10;91.69;95891.69;6126668;23;20163;-83
2022/12/26 13:20:33;;;;;;;4.83;3.10;;;;;;;12.01;93.26;95896.13;6125674;23;20160;-82
2022/12/26 13:25:53;;;;;;;3.53;2.87;;;;;;;11.96;94.49;95892.47;6125874;23;20158;-83
2022/12/26 13:28:27;;;;;;;4.33;2.90;;;;;;;11.99;93.89;95889.53;6126828;23;20163;-82
2022/12/26 13:30:55;;;;;;;3.20;2.80;;;;;;;11.99;95.04;95899.84;6124350;23;20327;-82
2022/12/26 13:33:22;;;;;;;5.33;3.50;;;;;;;11.92;96.14;95907.53;6125270;23;20199;-82
2022/12/26 13:35:56;;;;;;;3.70;3.23;;;;;;;11.91;96.15;95903.34;6125707;23;20677;-82
2022/12/26 13:38:25;;;;;;;3.30;3.00;;;;;;;11.88;96.84;95903.69;6124960;23;20156;-84
2022/12/26 13:43:53;;;;;;;3.33;3.03;;;;;;;11.86;95.51;95908.22;6126925;23;20806;-83
2022/12/26 13:44:01;;;;;;;5.17;3.30;;;;;;;11.80;98.57;95902.94;6126070;23;20675;-83
2022/12/26 13:46:38;;;;;;;3.47;2.60;;;;;;;11.82;97.03;95906.16;6123428;23;20212;-82
2022/12/26 13:49:04;;;;;;;3.50;2.93;;;;;;;11.85;97.34;95905.81;6124688;23;20183;-83
2022/12/26 13:51:56;;;;;;;3.73;2.83;;;;;;;11.80;97.62;95903.75;6123546;23;20203;-82
2022/12/26 13:54:25;;;;;;;3.83;2.53;;;;;;;11.75;98.16;95906.81;6124375;23;20175;-83
2022/12/26 13:57:33;;;;;;;3.70;2.80;;;;;;;11.80;98.03;95908.13;6127701;23;20176;-82
2022/12/26 14:00:05;;;;;;;3.20;2.90;;;;;;;11.62;98.30;95908.41;6110589;23;20258;-85
2022/12/26 14:03:07;;;;;;;3.93;2.97;;;;;;;11.60;98.27;95911.16;6124788;23;20588;-84
2022/12/26 14:05:41;;;;;;;5.10;2.93;;;;;;;11.54;98.57;95919.63;6125141;23;20187;-85
2022/12/26 14:08:16;;;;;;;3.67;2.97;;;;;;;11.60;98.25;95921.47;6126974;23;20167;-85
2022/12/26 14:10:54;;;;;;;2.97;2.67;;;;;;;11.62;97.72;95927.25;6125693;23;20502;-85